Data for 09/07/2009

Time Sea-Level Adjusted Pressure Absolute Pressure Temperature Relative Humidity Dew Point   
(mb) (inHg) (mb) (inHg) (C) (F) (%) (C) (F)
00:05 1017 30.03 846 24.98 15.2 59.3 53 5.8 42.4
00:10 1017 30.03 846 24.98 15.1 59.1 53 5.7 42.2
00:15 1017 30.03 846 24.98 15 59.1 53 5.6 42.1
00:20 1017 30.03 846 24.98 15 59 53 5.6 42.1
00:25 1017 30.03 846 24.98 15 59 54 5.7 42.3
00:30 1017 30.03 846 24.98 14.7 58.5 55 5.8 42.5
00:35 1017 30.03 846 24.98 14.5 58 56 5.9 42.6
00:40 1017 30.03 846 24.98 14.2 57.5 56 5.7 42.2
00:45 1017 30.03 846 24.98 14.3 57.7 55 5.5 41.9
00:50 1017 30.03 847 25.01 14.3 57.7 56 5.7 42.3
00:55 1017 30.03 847 25.01 14.3 57.7 56 5.6 42.1
01:00 1018 30.06 847 25.01 14.3 57.7 56 5.6 42.2
01:05 1018 30.06 847 25.01 14.2 57.5 57 5.8 42.5
01:10 1018 30.06 847 25.01 13.9 57.1 58 5.9 42.7
01:15 1018 30.06 847 25.01 13.7 56.6 58 5.8 42.4
01:20 1018 30.06 847 25.01 13.8 56.9 59 5.9 42.7
01:25 1018 30.06 847 25.01 13.7 56.7 59 5.9 42.6
01:30 1018 30.06 847 25.01 13.7 56.7 57 5.3 41.6
01:35 1018 30.06 847 25.01 14.1 57.5 56 5.5 41.9
01:40 1018 30.06 847 25.01 14.2 57.6 55 5.5 41.9
01:45 1018 30.06 847 25.01 14.3 57.7 55 5.4 41.8
01:50 1018 30.06 847 25.01 14.2 57.6 55 5.5 41.8
01:55 1018 30.06 847 25.01 14.2 57.6 56 5.6 42.1
02:00 1018 30.06 847 25.01 14.1 57.4 56 5.6 42.2
02:05 1018 30.06 847 25.01 13.9 57.1 57 5.5 42
02:10 1018 30.06 847 25.01 13.9 57 57 5.6 42
02:15 1018 30.06 847 25.01 13.8 56.9 57 5.6 42
02:20 1018 30.06 847 25.01 13.8 56.9 56 5.4 41.7
02:25 1018 30.06 847 25.01 13.9 57.1 56 5.3 41.6
02:30 1018 30.06 847 25.01 14 57.2 56 5.4 41.8
02:35 1018 30.06 847 25.01 14.1 57.4 55 5.3 41.6
02:40 1018 30.06 847 25.01 14.1 57.4 56 5.5 41.8
02:45 1018 30.06 847 25.01 14.1 57.3 56 5.6 42
02:50 1018 30.06 847 25.01 13.9 57 57 5.6 42
02:55 1018 30.06 847 25.01 13.9 57 57 5.5 42
03:00 1018 30.06 847 25.01 13.9 56.9 57 5.6 42.1
03:05 1018 30.06 847 25.01 13.9 56.9 57 5.5 41.9
03:10 1018 30.06 847 25.01 13.9 57 57 5.5 41.9
03:15 1018 30.06 847 25.01 13.9 57 56 5.3 41.6
03:20 1018 30.06 847 25.01 14 57.1 55 5.2 41.4
03:25 1018 30.06 847 25.01 14 57.1 56 5.3 41.5
03:30 1018 30.06 847 25.01 13.8 56.9 57 5.5 41.9
03:35 1018 30.06 847 25.01 13.6 56.6 58 5.7 42.2
03:40 1018 30.06 847 25.01 13.5 56.3 58 5.6 42
03:45 1018 30.06 847 25.01 13.3 56 59 5.5 41.9
03:50 1017 30.03 847 25.01 13.2 55.8 60 5.8 42.4
03:55 1017 30.03 846 24.98 12.9 55.2 62 5.8 42.4
04:00 1017 30.03 846 24.98 12.8 55.1 62 5.9 42.6
04:05 1017 30.03 846 24.98 12.8 55 61 5.5 41.8
04:10 1017 30.03 846 24.98 13 55.3 59 5.3 41.6
04:15 1017 30.03 846 24.98 13 55.4 60 5.6 42.1
04:20 1017 30.03 846 24.98 12.9 55.2 60 5.4 41.6
04:25 1017 30.03 846 24.98 12.8 55 60 5.3 41.5
04:30 1016 30 846 24.98 12.7 54.8 61 5.4 41.6
04:35 1016 30 846 24.98 12.5 54.4 62 5.5 41.9
04:40 1016 30 845 24.95 12.3 54.1 63 5.6 42
04:45 1016 30 845 24.95 12.2 53.9 62 5.2 41.4
04:50 1016 30 845 24.95 12.4 54.2 61 5.2 41.4
04:55 1016 30 845 24.95 12.4 54.4 61 5.1 41.3
05:00 1016 30 845 24.95 12.7 54.8 60 5.1 41.1
05:05 1016 30 845 24.95 12.8 55 60 5.2 41.4
05:10 1016 30 845 24.95 12.9 55.2 59 5.1 41.2
05:15 1016 30 845 24.95 13 55.4 58 5 41.1
05:20 1016 30 845 24.95 13.1 55.6 58 5 41
05:25 1016 30 845 24.95 13.2 55.7 58 5.1 41.2
05:30 1016 30 845 24.95 13.2 55.8 58 5.3 41.5
05:35 1016 30 845 24.95 13.2 55.8 58 5.3 41.5
05:40 1016 30 846 24.98 13.3 56 57 5 41
05:45 1016 30 846 24.98 13.4 56.2 60 5.8 42.5
05:50 1016 30 846 24.98 12.9 55.2 63 6 42.8
05:55 1017 30.03 846 24.98 12.5 54.5 65 6.2 43.2
06:00 1017 30.03 846 24.98 12.3 54.1 66 6.2 43.2
06:05 1017 30.03 846 24.98 12.2 53.9 67 6.3 43.4
06:10 1017 30.03 846 24.98 12.1 53.7 68 6.4 43.5
06:15 1017 30.03 847 25.01 12 53.6 68 6.4 43.5
06:20 1017 30.03 847 25.01 11.9 53.4 68 6.2 43.2
06:25 1017 30.03 847 25.01 11.8 53.3 68 6.2 43.1
06:30 1017 30.03 847 25.01 11.6 52.9 70 6.3 43.4
06:35 1017 30.03 847 25.01 11.3 52.4 70 6.1 43
06:40 1017 30.03 847 25.01 11 51.9 73 6.3 43.4
06:45 1018 30.06 847 25.01 10.9 51.7 74 6.4 43.6
06:50 1018 30.06 847 25.01 10.5 51 73 6 42.8
06:55 1018 30.06 847 25.01 10.4 50.8 73 5.8 42.4
07:00 1018 30.06 847 25.01 10.3 50.6 70 5.1 41.2
07:05 1018 30.06 847 25.01 10.5 50.9 67 4.6 40.3
07:10 1018 30.06 847 25.01 10.5 51 64 4 39.1
07:15 1018 30.06 847 25.01 10.5 51 59 2.9 37.1
07:20 1018 30.06 847 25.01 10.7 51.3 59 3 37.4
07:25 1018 30.06 847 25.01 10.6 51.1 58 2.7 36.9
07:30 1018 30.06 847 25.01 10.7 51.2 58 2.8 37
07:35 1018 30.06 847 25.01 10.6 51.1 59 3 37.4
07:40 1018 30.06 848 25.04 10.5 50.9 61 3.4 38
07:45 1018 30.06 848 25.04 10.4 50.8 62 3.5 38.4
07:50 1018 30.06 848 25.04 10.6 51.1 61 3.4 38.2
07:55 1019 30.09 848 25.04 10.8 51.4 60 3.4 38.1
08:00 1019 30.09 848 25.04 10.9 51.5 61 3.6 38.5
08:05 1019 30.09 848 25.04 10.7 51.2 60 3.2 37.8
08:10 1019 30.09 848 25.04 10.9 51.5 59 3.1 37.6
08:15 1019 30.09 848 25.04 11.1 51.9 57 3 37.4
08:20 1019 30.09 848 25.04 11.3 52.3 55 2.5 36.5
08:25 1019 30.09 848 25.04 11.8 53.3 52 2.3 36.1
08:30 1019 30.09 848 25.04 12 53.5 52 2.5 36.6
08:35 1019 30.09 848 25.04 12.2 54 50 2.2 36
08:40 1019 30.09 848 25.04 12.4 54.3 48 1.8 35.3
08:45 1019 30.09 848 25.04 12.8 55.1 47 2 35.5
08:50 1019 30.09 849 25.07 12.7 54.9 47 1.8 35.2
08:55 1019 30.09 848 25.04 12.7 54.9 46 1.6 34.9
09:00 1019 30.09 848 25.04 12.8 55 47 1.7 35
09:05 1019 30.09 848 25.04 13.1 55.6 45 1.4 34.5
09:10 1019 30.09 848 25.04 13.3 55.9 45 1.5 34.8
09:15 1019 30.09 848 25.04 13.3 55.9 45 1.7 35
09:20 1019 30.09 848 25.04 12.7 54.9 46 1.6 34.9
09:25 1019 30.09 848 25.04 12.7 54.9 45 1.3 34.3
09:30 1019 30.09 848 25.04 12.8 55.1 46 1.5 34.7
09:35 1019 30.09 848 25.04 12.8 55 46 1.5 34.8
09:40 1019 30.09 848 25.04 12.6 54.6 48 1.9 35.4
09:45 1019 30.09 848 25.04 12.1 53.8 47 1.2 34.2
09:50 1019 30.09 848 25.04 12.4 54.3 47 1.3 34.4
09:55 1019 30.09 848 25.04 12.9 55.1 45 1.1 34.1
10:00 1019 30.09 848 25.04 13.2 55.8 42 0.8 33.4
10:05 1019 30.09 848 25.04 14.2 57.5 40 0.7 33.3
10:10 1019 30.09 848 25.04 14 57.1 43 1.7 35.1
10:15 1019 30.09 848 25.04 13.9 57.1 41 0.9 33.5
10:20 1019 30.09 848 25.04 14.5 58.1 40 1.1 34
10:25 1019 30.09 848 25.04 15 59 38 1 33.7
10:30 1019 30.09 848 25.04 15.7 60.2 36 0.8 33.5
10:35 1019 30.09 848 25.04 15 58.9 40 1.5 34.6
10:40 1019 30.09 848 25.04 15.1 59.2 39 1.5 34.6
10:45 1019 30.09 848 25.04 16 60.8 36 1.2 34.1
10:50 1019 30.09 848 25.04 16.5 61.8 35 1.2 34.1
10:55 1019 30.09 848 25.04 16.7 62.1 35 1.2 34.1
11:00 1019 30.09 848 25.04 16.1 60.9 37 1.5 34.8
11:05 1019 30.09 848 25.04 16 60.8 35 0.6 33.1
11:10 1019 30.09 848 25.04 17 62.6 34 1 33.9
11:15 1018 30.06 848 25.04 17.2 62.9 35 1.8 35.2
11:20 1018 30.06 848 25.04 16.8 62.2 34 1 33.9
11:25 1018 30.06 848 25.04 16.9 62.4 36 1.9 35.4
11:30 1018 30.06 848 25.04 16.8 62.3 35 1.5 34.6
11:35 1018 30.06 848 25.04 17.3 63.2 34 1.4 34.5
11:40 1018 30.06 848 25.04 17.8 64.1 33 1.6 34.9
11:45 1018 30.06 848 25.04 17.7 63.8 33 1.4 34.5
11:50 1018 30.06 847 25.01 17.4 63.3 35 1.9 35.5
11:55 1018 30.06 847 25.01 17.8 64 33 1.6 34.9
12:00 1018 30.06 847 25.01 18.2 64.7 33 1.6 34.8
12:05 1018 30.06 847 25.01 18.4 65 33 2 35.5
12:10 1018 30.06 847 25.01 17.9 64.3 34 1.8 35.2
12:15 1018 30.06 847 25.01 17.3 63.2 37 2.6 36.7
12:20 1018 30.06 847 25.01 17.9 64.2 34 1.8 35.2
12:25 1018 30.06 847 25.01 18 64.5 34 2.3 36.1
12:30 1018 30.06 847 25.01 18.9 66 32 2 35.7
12:35 1018 30.06 847 25.01 19.4 67 32 2.4 36.4
12:40 1018 30.06 847 25.01 18.2 64.7 34 2.2 36
12:45 1017 30.03 847 25.01 18.2 64.8 33 1.9 35.5
12:50 1017 30.03 847 25.01 19 66.1 32 2.2 35.9
12:55 1017 30.03 847 25.01 18.8 65.8 32 1.9 35.4
13:00 1017 30.03 846 24.98 18.7 65.7 33 2.1 35.7
13:05 1017 30.03 846 24.98 19.2 66.5 30 1.5 34.8
13:10 1017 30.03 846 24.98 19.3 66.7 31 2 35.6
13:15 1017 30.03 846 24.98 19.7 67.4 29 1.4 34.6
13:20 1017 30.03 846 24.98 19.9 67.8 30 1.9 35.4
13:25 1017 30.03 846 24.98 19.8 67.6 31 2.1 35.8
13:30 1017 30.03 846 24.98 19.1 66.4 32 2.3 36.1
13:35 1017 30.03 846 24.98 18.7 65.6 31 1.5 34.7
13:40 1017 30.03 846 24.98 18.6 65.4 32 1.8 35.2
13:45 1017 30.03 846 24.98 18.7 65.6 32 1.7 35.1
13:50 1017 30.03 846 24.98 18.9 66 31 1.5 34.7
13:55 1017 30.03 846 24.98 19.2 66.5 32 2.1 35.7
14:00 1017 30.03 846 24.98 19 66.3 32 2.1 35.8
14:05 1017 30.03 846 24.98 19.3 66.8 31 2 35.7
14:10 1017 30.03 846 24.98 20.1 68.2 30 2.3 36.1
14:15 1017 30.03 846 24.98 20.1 68.1 31 2.6 36.7
14:20 1017 30.03 846 24.98 19.3 66.8 32 2.4 36.3
14:25 1016 30 846 24.98 19.3 66.8 32 2.4 36.4
14:30 1016 30 846 24.98 19.5 67.1 31 2.2 36
14:35 1016 30 846 24.98 19.2 66.5 31 2 35.6
14:40 1016 30 845 24.95 18.9 66.1 31 1.7 35
14:45 1016 30 845 24.95 19.2 66.5 31 1.7 35.1
14:50 1016 30 845 24.95 19.1 66.4 32 2 35.7
14:55 1016 30 845 24.95 19 66.2 31 1.8 35.2
15:00 1016 30 845 24.95 18.9 66.1 31 1.5 34.7
15:05 1016 30 845 24.95 18.9 66 31 1.6 34.8
15:10 1016 30 845 24.95 19 66.2 32 1.9 35.4
15:15 1016 30 845 24.95 19.5 67.1 30 1.6 34.8
15:20 1016 30 845 24.95 19.3 66.7 30 1.2 34.2
15:25 1016 30 845 24.95 19.5 67.2 32 2.6 36.6
15:30 1016 30 845 24.95 19.7 67.4 31 2.2 36
15:35 1016 30 845 24.95 19.5 67.1 31 1.9 35.5
15:40 1016 30 845 24.95 19.3 66.8 31 1.8 35.3
15:45 1016 30 845 24.95 19.5 67.1 30 1.6 34.8
15:50 1016 30 845 24.95 19.7 67.5 30 2 35.6
15:55 1016 30 845 24.95 19.4 66.9 30 1.7 35
16:00 1016 30 845 24.95 19.2 66.6 32 2.3 36.2
16:05 1016 30 845 24.95 19 66.3 34 2.8 37
16:10 1016 30 845 24.95 19 66.1 35 3.5 38.2
16:15 1016 30 845 24.95 18.8 65.8 32 2.1 35.7
16:20 1016 30 845 24.95 18.9 66 32 1.9 35.4
16:25 1016 30 845 24.95 19.1 66.5 31 1.8 35.2
16:30 1016 30 845 24.95 19.6 67.3 30 1.8 35.3
16:35 1016 30 845 24.95 18.7 65.6 31 1.5 34.7
16:40 1015 29.97 845 24.95 18.3 65 31 1.2 34.1
16:45 1015 29.97 845 24.95 19.3 66.8 29 0.9 33.6
16:50 1015 29.97 845 24.95 20 68 28 1.2 34.1
16:55 1015 29.97 845 24.95 19.9 67.7 29 1.2 34.2
17:00 1015 29.97 845 24.95 19.9 67.7 29 1.6 34.9
17:05 1015 29.97 845 24.95 19.9 67.8 31 2.2 36
17:10 1015 29.97 844 24.92 20.1 68.2 30 1.9 35.4
17:15 1015 29.97 844 24.92 20 68.1 31 2.4 36.4
17:20 1015 29.97 844 24.92 19.9 67.7 30 2.1 35.8
17:25 1015 29.97 844 24.92 20 68 30 2.2 35.9
17:30 1015 29.97 844 24.92 20.2 68.4 29 1.9 35.3
17:35 1015 29.97 844 24.92 20.6 69 29 2.2 36
17:40 1015 29.97 844 24.92 20.2 68.4 29 2 35.6
17:45 1015 29.97 844 24.92 20.1 68.1 28 1.3 34.4
17:50 1015 29.97 844 24.92 19.5 67.2 28 0.8 33.5
17:55 1015 29.97 844 24.92 19.5 67.1 28 0.5 32.9
18:00 1015 29.97 844 24.92 19.6 67.3 27 0.5 32.9
18:05 1015 29.97 844 24.92 19.8 67.6 27 0.4 32.8
18:10 1015 29.97 845 24.95 20.2 68.3 27 0.9 33.6
18:15 1015 29.97 845 24.95 20 67.9 29 1.4 34.6
18:20 1015 29.97 844 24.92 19.2 66.6 28 0.4 32.7
18:25 1015 29.97 845 24.95 19.2 66.6 27 0.2 32.3
18:30 1015 29.97 845 24.95 19 66.2 28 0.2 32.4
18:35 1015 29.97 844 24.92 19 66.3 28 0.2 32.4
18:40 1015 29.97 845 24.95 18.8 65.8 29 0.3 32.6
18:45 1015 29.97 845 24.95 18.7 65.7 28 -0.2 31.6
18:50 1015 29.97 845 24.95 18.6 65.5 28 -0.1 31.9
18:55 1015 29.97 845 24.95 18.4 65.2 28 -0 31.9
19:00 1015 29.97 845 24.95 18.1 64.7 29 -0 32
19:05 1015 29.97 844 24.92 18 64.3 29 -0.1 31.7
19:10 1015 29.97 844 24.92 17.7 63.9 30 -0 31.9
19:15 1015 29.97 844 24.92 17.6 63.6 29 -0.4 31.3
19:20 1015 29.97 844 24.92 17.5 63.4 30 -0.1 31.8
19:25 1015 29.97 844 24.92 17.2 63 31 0 32
19:30 1015 29.97 844 24.92 16.8 62.2 33 0.7 33.3
19:35 1015 29.97 844 24.92 16.4 61.5 33 0.1 32.2
19:40 1015 29.97 844 24.92 16.2 61.1 34 0.4 32.7
19:45 1015 29.97 844 24.92 16 60.7 34 0.2 32.4
19:50 1015 29.97 844 24.92 16 60.9 33 0 32
19:55 1015 29.97 845 24.95 16.1 61.1 35 0.6 33.1
20:00 1015 29.97 845 24.95 16.1 61 35 0.8 33.4
20:05 1015 29.97 845 24.95 16 60.8 36 1.1 34
20:10 1015 29.97 845 24.95 15.8 60.5 37 1.2 34.2
20:15 1015 29.97 845 24.95 16 60.7 37 1.2 34.2
20:20 1016 30 845 24.95 16.2 61.2 36 1.2 34.2
20:25 1016 30 845 24.95 16.1 61 38 2 35.7
20:30 1016 30 845 24.95 15.8 60.5 39 2 35.6
20:35 1016 30 845 24.95 15.4 59.8 44 3.3 38
20:40 1016 30 845 24.95 15 59 44 2.9 37.3
20:45 1016 30 845 24.95 14.7 58.4 44 2.7 36.8
20:50 1016 30 845 24.95 14.5 58 44 2.4 36.3
20:55 1016 30 845 24.95 14.7 58.5 42 2.2 35.9
21:00 1016 30 845 24.95 14.5 58.2 46 3.1 37.6
21:05 1016 30 845 24.95 14.4 57.9 45 2.8 37.1
21:10 1016 30 845 24.95 14.3 57.7 48 3.5 38.4
21:15 1016 30 845 24.95 14 57.3 48 3.2 37.8
21:20 1016 30 845 24.95 13.8 56.8 45 2.2 36
21:25 1016 30 845 24.95 14 57.2 46 2.6 36.7
21:30 1016 30 846 24.98 14 57.1 47 3 37.4
21:35 1016 30 846 24.98 13.8 56.9 48 3 37.4
21:40 1016 30 846 24.98 13.6 56.6 46 2.4 36.4
21:45 1016 30 846 24.98 13.7 56.7 46 2.3 36.2
21:50 1016 30 846 24.98 13.6 56.6 49 3.1 37.5
21:55 1016 30 846 24.98 13.3 55.9 49 2.8 37.1
22:00 1017 30.03 846 24.98 13.2 55.7 48 2.4 36.3
22:05 1017 30.03 846 24.98 13.2 55.8 45 1.5 34.8
22:10 1017 30.03 846 24.98 13.3 55.9 45 1.7 35
22:15 1017 30.03 846 24.98 13.2 55.7 47 2.1 35.8
22:20 1017 30.03 846 24.98 12.9 55.1 47 1.9 35.5
22:25 1017 30.03 846 24.98 12.6 54.7 47 1.7 35.1
22:30 1017 30.03 846 24.98 12.4 54.4 47 1.6 34.8
22:35 1017 30.03 846 24.98 12.4 54.2 46 1.1 33.9
22:40 1017 30.03 846 24.98 12.2 53.9 46 0.9 33.7
22:45 1017 30.03 846 24.98 12.1 53.9 45 0.7 33.2
22:50 1017 30.03 846 24.98 12.1 53.8 45 0.6 33.1
22:55 1017 30.03 846 24.98 12.1 53.7 45 0.6 33
23:00 1017 30.03 846 24.98 12 53.6 45 0.4 32.8
23:05 1017 30.03 846 24.98 11.9 53.4 45 0.3 32.5
23:10 1017 30.03 846 24.98 11.9 53.4 45 0.3 32.6
23:15 1017 30.03 846 24.98 11.8 53.3 44 -0.1 31.8
23:20 1017 30.03 846 24.98 11.7 53.1 43 -0.2 31.6
23:25 1017 30.03 846 24.98 11.7 53 43 -0.3 31.4
23:30 1017 30.03 846 24.98 11.5 52.8 44 -0.3 31.5
23:35 1017 30.03 847 25.01 11.4 52.6 44 -0.3 31.4
23:40 1017 30.03 847 25.01 11.4 52.5 44 -0.4 31.3
23:45 1017 30.03 847 25.01 11.5 52.7 43 -0.6 30.9
23:50 1017 30.03 847 25.01 11.5 52.6 44 -0.3 31.5
23:55 1017 30.03 847 25.01 11.4 52.6 44 -0.3 31.4
24:00 1017 30.03 847 25.01 11.3 52.3 44 -0.3 31.4